sensor_id;sensor_type;location;lat;lon;timestamp;temperature;humidity
48752;DHT22;34544;48.836;9.174;2023-05-07T00:01:35;13.80;99.90
48752;DHT22;34544;48.836;9.174;2023-05-07T00:04:01;13.80;99.90
48752;DHT22;34544;48.836;9.174;2023-05-07T00:06:27;13.70;99.90
48752;DHT22;34544;48.836;9.174;2023-05-07T00:08:54;13.70;99.90
48752;DHT22;34544;48.836;9.174;2023-05-07T00:11:20;13.70;99.90
48752;DHT22;34544;48.836;9.174;2023-05-07T00:13:47;13.70;99.90
48752;DHT22;34544;48.836;9.174;2023-05-07T00:16:12;13.70;99.90
48752;DHT22;34544;48.836;9.174;2023-05-07T00:18:38;13.70;99.90
48752;DHT22;34544;48.836;9.174;2023-05-07T00:21:04;13.70;99.90
48752;DHT22;34544;48.836;9.174;2023-05-07T00:23:29;13.60;99.90
48752;DHT22;34544;48.836;9.174;2023-05-07T00:25:56;13.60;99.90
48752;DHT22;34544;48.836;9.174;2023-05-07T00:28:21;13.60;99.90
48752;DHT22;34544;48.836;9.174;2023-05-07T00:30:47;13.50;99.90
48752;DHT22;34544;48.836;9.174;2023-05-07T00:33:13;13.50;99.90
48752;DHT22;34544;48.836;9.174;2023-05-07T00:35:38;13.50;99.90
48752;DHT22;34544;48.836;9.174;2023-05-07T00:38:04;13.50;99.90
48752;DHT22;34544;48.836;9.174;2023-05-07T00:40:30;13.40;99.90
48752;DHT22;34544;48.836;9.174;2023-05-07T00:42:55;13.40;99.90
48752;DHT22;34544;48.836;9.174;2023-05-07T00:45:26;13.40;99.90
48752;DHT22;34544;48.836;9.174;2023-05-07T00:47:58;13.30;99.90
48752;DHT22;34544;48.836;9.174;2023-05-07T00:50:24;13.40;99.90
48752;DHT22;34544;48.836;9.174;2023-05-07T00:52:50;13.30;99.90
48752;DHT22;34544;48.836;9.174;2023-05-07T00:55:16;13.30;99.90
48752;DHT22;34544;48.836;9.174;2023-05-07T00:57:42;13.30;99.90
48752;DHT22;34544;48.836;9.174;2023-05-07T01:00:10;13.20;99.90
48752;DHT22;34544;48.836;9.174;2023-05-07T01:02:36;13.20;99.90
48752;DHT22;34544;48.836;9.174;2023-05-07T01:05:03;13.20;99.90
48752;DHT22;34544;48.836;9.174;2023-05-07T01:07:31;13.20;99.90
48752;DHT22;34544;48.836;9.174;2023-05-07T01:09:57;13.10;99.90
48752;DHT22;34544;48.836;9.174;2023-05-07T01:12:24;13.10;99.90
48752;DHT22;34544;48.836;9.174;2023-05-07T01:14:51;13.10;99.90
48752;DHT22;34544;48.836;9.174;2023-05-07T01:17:17;13.00;99.90
48752;DHT22;34544;48.836;9.174;2023-05-07T01:19:45;13.00;99.90
48752;DHT22;34544;48.836;9.174;2023-05-07T01:22:11;13.00;99.90
48752;DHT22;34544;48.836;9.174;2023-05-07T01:24:46;13.00;99.90
48752;DHT22;34544;48.836;9.174;2023-05-07T01:27:14;13.00;99.90
48752;DHT22;34544;48.836;9.174;2023-05-07T01:29:40;13.00;99.90
48752;DHT22;34544;48.836;9.174;2023-05-07T01:32:06;12.90;99.90
48752;DHT22;34544;48.836;9.174;2023-05-07T01:34:33;12.90;99.90
48752;DHT22;34544;48.836;9.174;2023-05-07T01:37:00;12.90;99.90
48752;DHT22;34544;48.836;9.174;2023-05-07T01:39:27;12.90;99.90
48752;DHT22;34544;48.836;9.174;2023-05-07T01:41:55;12.90;99.90
48752;DHT22;34544;48.836;9.174;2023-05-07T01:44:22;12.90;99.90
48752;DHT22;34544;48.836;9.174;2023-05-07T01:46:49;13.10;99.90
48752;DHT22;34544;48.836;9.174;2023-05-07T01:54:10;12.90;99.90
48752;DHT22;34544;48.836;9.174;2023-05-07T01:56:36;12.50;99.90
48752;DHT22;34544;48.836;9.174;2023-05-07T01:59:02;13.00;99.90
48752;DHT22;34544;48.836;9.174;2023-05-07T02:01:28;12.90;99.90
48752;DHT22;34544;48.836;9.174;2023-05-07T02:03:54;13.00;99.90
48752;DHT22;34544;48.836;9.174;2023-05-07T02:06:24;12.90;99.90
48752;DHT22;34544;48.836;9.174;2023-05-07T02:08:53;13.00;99.90
48752;DHT22;34544;48.836;9.174;2023-05-07T02:11:19;12.90;99.90
48752;DHT22;34544;48.836;9.174;2023-05-07T02:13:45;13.00;99.90
48752;DHT22;34544;48.836;9.174;2023-05-07T02:16:11;13.00;99.90
48752;DHT22;34544;48.836;9.174;2023-05-07T02:18:39;13.00;99.90
48752;DHT22;34544;48.836;9.174;2023-05-07T02:21:04;13.00;99.90
48752;DHT22;34544;48.836;9.174;2023-05-07T02:35:56;12.70;99.90
48752;DHT22;34544;48.836;9.174;2023-05-07T02:38:22;12.90;99.90
48752;DHT22;34544;48.836;9.174;2023-05-07T02:40:48;12.80;99.90
48752;DHT22;34544;48.836;9.174;2023-05-07T02:43:15;12.70;99.90
48752;DHT22;34544;48.836;9.174;2023-05-07T02:45:44;12.60;99.90
48752;DHT22;34544;48.836;9.174;2023-05-07T02:48:10;12.80;99.90
48752;DHT22;34544;48.836;9.174;2023-05-07T02:53:02;12.50;99.90
48752;DHT22;34544;48.836;9.174;2023-05-07T02:57:55;12.40;99.90
48752;DHT22;34544;48.836;9.174;2023-05-07T03:00:21;12.50;99.90
48752;DHT22;34544;48.836;9.174;2023-05-07T03:02:59;12.40;99.90
48752;DHT22;34544;48.836;9.174;2023-05-07T03:05:25;12.40;99.90
48752;DHT22;34544;48.836;9.174;2023-05-07T03:07:51;12.30;99.90
48752;DHT22;34544;48.836;9.174;2023-05-07T03:10:16;12.30;99.90
48752;DHT22;34544;48.836;9.174;2023-05-07T03:15:11;12.20;99.90
48752;DHT22;34544;48.836;9.174;2023-05-07T03:17:38;12.10;99.90
48752;DHT22;34544;48.836;9.174;2023-05-07T03:20:04;12.40;99.90
48752;DHT22;34544;48.836;9.174;2023-05-07T03:24:57;12.00;99.90
48752;DHT22;34544;48.836;9.174;2023-05-07T03:27:23;12.00;99.90
48752;DHT22;34544;48.836;9.174;2023-05-07T03:29:51;11.80;99.90
48752;DHT22;34544;48.836;9.174;2023-05-07T03:32:17;11.80;99.90
48752;DHT22;34544;48.836;9.174;2023-05-07T03:34:43;11.80;99.90
48752;DHT22;34544;48.836;9.174;2023-05-07T03:37:11;11.70;99.90
48752;DHT22;34544;48.836;9.174;2023-05-07T03:39:37;11.60;99.90
48752;DHT22;34544;48.836;9.174;2023-05-07T03:42:03;11.60;99.90
48752;DHT22;34544;48.836;9.174;2023-05-07T03:44:31;11.70;99.90
48752;DHT22;34544;48.836;9.174;2023-05-07T03:46:59;11.70;99.90
48752;DHT22;34544;48.836;9.174;2023-05-07T03:49:25;11.60;99.90
48752;DHT22;34544;48.836;9.174;2023-05-07T03:51:51;11.50;99.90
48752;DHT22;34544;48.836;9.174;2023-05-07T03:54:17;11.50;99.90
48752;DHT22;34544;48.836;9.174;2023-05-07T03:56:45;11.50;99.90
48752;DHT22;34544;48.836;9.174;2023-05-07T03:59:12;11.50;99.90
48752;DHT22;34544;48.836;9.174;2023-05-07T04:01:39;11.40;99.90
48752;DHT22;34544;48.836;9.174;2023-05-07T04:04:06;11.40;99.90
48752;DHT22;34544;48.836;9.174;2023-05-07T04:06:33;11.40;99.90
48752;DHT22;34544;48.836;9.174;2023-05-07T04:08:59;11.40;99.90
48752;DHT22;34544;48.836;9.174;2023-05-07T04:11:26;11.40;99.90
48752;DHT22;34544;48.836;9.174;2023-05-07T04:13:52;11.40;99.90
48752;DHT22;34544;48.836;9.174;2023-05-07T04:16:20;11.60;99.90
48752;DHT22;34544;48.836;9.174;2023-05-07T04:18:46;11.50;99.90
48752;DHT22;34544;48.836;9.174;2023-05-07T04:21:19;11.50;99.90
48752;DHT22;34544;48.836;9.174;2023-05-07T04:23:47;11.60;99.90
48752;DHT22;34544;48.836;9.174;2023-05-07T04:26:14;11.60;99.90
48752;DHT22;34544;48.836;9.174;2023-05-07T04:28:42;11.60;99.90
48752;DHT22;34544;48.836;9.174;2023-05-07T04:31:08;11.60;99.90
48752;DHT22;34544;48.836;9.174;2023-05-07T04:33:36;11.60;99.90
48752;DHT22;34544;48.836;9.174;2023-05-07T04:36:03;11.70;99.90
48752;DHT22;34544;48.836;9.174;2023-05-07T04:38:31;11.80;99.90
48752;DHT22;34544;48.836;9.174;2023-05-07T04:41:03;11.80;99.90
48752;DHT22;34544;48.836;9.174;2023-05-07T04:43:31;11.80;99.90
48752;DHT22;34544;48.836;9.174;2023-05-07T04:45:58;11.80;99.90
48752;DHT22;34544;48.836;9.174;2023-05-07T04:48:26;11.80;99.90
48752;DHT22;34544;48.836;9.174;2023-05-07T04:50:53;11.90;99.90
48752;DHT22;34544;48.836;9.174;2023-05-07T04:53:20;12.00;99.90
48752;DHT22;34544;48.836;9.174;2023-05-07T04:55:47;12.00;99.90
48752;DHT22;34544;48.836;9.174;2023-05-07T04:58:14;12.00;99.90
48752;DHT22;34544;48.836;9.174;2023-05-07T05:00:41;12.10;99.90
48752;DHT22;34544;48.836;9.174;2023-05-07T05:03:08;12.10;99.90
48752;DHT22;34544;48.836;9.174;2023-05-07T05:05:34;12.20;99.90
48752;DHT22;34544;48.836;9.174;2023-05-07T05:08:01;12.30;99.90
48752;DHT22;34544;48.836;9.174;2023-05-07T05:10:27;12.20;99.90
48752;DHT22;34544;48.836;9.174;2023-05-07T05:12:53;12.20;99.90
48752;DHT22;34544;48.836;9.174;2023-05-07T05:15:20;12.30;99.90
48752;DHT22;34544;48.836;9.174;2023-05-07T05:17:46;12.30;99.90
48752;DHT22;34544;48.836;9.174;2023-05-07T05:20:11;12.30;99.90
48752;DHT22;34544;48.836;9.174;2023-05-07T05:22:39;12.30;99.90
48752;DHT22;34544;48.836;9.174;2023-05-07T05:25:05;12.40;99.90
48752;DHT22;34544;48.836;9.174;2023-05-07T05:27:31;12.60;99.90
48752;DHT22;34544;48.836;9.174;2023-05-07T05:29:57;12.70;99.90
48752;DHT22;34544;48.836;9.174;2023-05-07T05:32:23;12.90;99.90
48752;DHT22;34544;48.836;9.174;2023-05-07T05:34:52;12.90;99.90
48752;DHT22;34544;48.836;9.174;2023-05-07T05:37:18;13.90;99.90
48752;DHT22;34544;48.836;9.174;2023-05-07T05:39:44;12.90;99.90
48752;DHT22;34544;48.836;9.174;2023-05-07T05:42:10;13.00;99.90
48752;DHT22;34544;48.836;9.174;2023-05-07T05:47:03;13.30;99.90
48752;DHT22;34544;48.836;9.174;2023-05-07T05:49:29;13.40;99.90
48752;DHT22;34544;48.836;9.174;2023-05-07T05:51:55;13.40;99.90
48752;DHT22;34544;48.836;9.174;2023-05-07T05:54:22;13.50;99.90
48752;DHT22;34544;48.836;9.174;2023-05-07T05:59:16;13.90;99.90
48752;DHT22;34544;48.836;9.174;2023-05-07T06:06:34;14.60;99.90
48752;DHT22;34544;48.836;9.174;2023-05-07T06:14:01;15.20;99.90
48752;DHT22;34544;48.836;9.174;2023-05-07T06:16:28;15.40;99.90
48752;DHT22;34544;48.836;9.174;2023-05-07T06:18:53;15.50;99.90
48752;DHT22;34544;48.836;9.174;2023-05-07T06:21:19;15.50;99.90
48752;DHT22;34544;48.836;9.174;2023-05-07T06:23:45;15.60;99.90
48752;DHT22;34544;48.836;9.174;2023-05-07T06:26:10;15.60;99.90
48752;DHT22;34544;48.836;9.174;2023-05-07T06:31:14;15.80;99.90
48752;DHT22;34544;48.836;9.174;2023-05-07T06:33:44;15.90;99.90
48752;DHT22;34544;48.836;9.174;2023-05-07T06:36:10;15.90;99.90
48752;DHT22;34544;48.836;9.174;2023-05-07T06:38:38;16.10;99.90
48752;DHT22;34544;48.836;9.174;2023-05-07T06:41:05;16.20;99.90
48752;DHT22;34544;48.836;9.174;2023-05-07T06:43:31;16.20;99.90
48752;DHT22;34544;48.836;9.174;2023-05-07T06:46:13;16.30;99.90
48752;DHT22;34544;48.836;9.174;2023-05-07T06:48:39;16.30;99.90
48752;DHT22;34544;48.836;9.174;2023-05-07T06:51:05;16.30;99.90
48752;DHT22;34544;48.836;9.174;2023-05-07T06:53:31;16.40;99.90
48752;DHT22;34544;48.836;9.174;2023-05-07T06:58:25;16.90;99.90
48752;DHT22;34544;48.836;9.174;2023-05-07T07:00:51;17.00;99.90
48752;DHT22;34544;48.836;9.174;2023-05-07T07:05:44;17.70;99.90
48752;DHT22;34544;48.836;9.174;2023-05-07T07:13:02;18.70;99.90
48752;DHT22;34544;48.836;9.174;2023-05-07T07:15:28;18.90;99.90
48752;DHT22;34544;48.836;9.174;2023-05-07T07:20:23;19.40;99.90
48752;DHT22;34544;48.836;9.174;2023-05-07T07:25:16;19.70;99.90
48752;DHT22;34544;48.836;9.174;2023-05-07T07:27:44;20.20;99.90
48752;DHT22;34544;48.836;9.174;2023-05-07T07:30:11;20.10;99.90
48752;DHT22;34544;48.836;9.174;2023-05-07T07:32:40;20.30;99.90
48752;DHT22;34544;48.836;9.174;2023-05-07T07:39:58;20.40;99.90
48752;DHT22;34544;48.836;9.174;2023-05-07T07:42:24;20.60;99.90
48752;DHT22;34544;48.836;9.174;2023-05-07T07:47:20;20.90;99.90
48752;DHT22;34544;48.836;9.174;2023-05-07T07:49:47;21.10;99.90
48752;DHT22;34544;48.836;9.174;2023-05-07T07:52:13;21.30;99.90
48752;DHT22;34544;48.836;9.174;2023-05-07T07:54:42;21.40;99.90
48752;DHT22;34544;48.836;9.174;2023-05-07T07:57:09;21.50;99.90
48752;DHT22;34544;48.836;9.174;2023-05-07T07:59:35;21.60;99.90
48752;DHT22;34544;48.836;9.174;2023-05-07T08:02:01;21.80;99.90
48752;DHT22;34544;48.836;9.174;2023-05-07T08:04:28;22.10;99.90
48752;DHT22;34544;48.836;9.174;2023-05-07T08:06:57;21.90;99.90
48752;DHT22;34544;48.836;9.174;2023-05-07T08:09:24;22.20;99.90
48752;DHT22;34544;48.836;9.174;2023-05-07T08:11:51;22.30;99.90
48752;DHT22;34544;48.836;9.174;2023-05-07T08:14:16;22.40;99.90
48752;DHT22;34544;48.836;9.174;2023-05-07T08:16:45;22.50;99.90
48752;DHT22;34544;48.836;9.174;2023-05-07T08:19:11;22.40;99.90
48752;DHT22;34544;48.836;9.174;2023-05-07T08:21:39;22.40;99.90
48752;DHT22;34544;48.836;9.174;2023-05-07T08:24:05;22.30;99.90
48752;DHT22;34544;48.836;9.174;2023-05-07T08:26:31;22.30;99.90
48752;DHT22;34544;48.836;9.174;2023-05-07T08:28:57;22.30;99.90
48752;DHT22;34544;48.836;9.174;2023-05-07T08:31:23;22.30;99.90
48752;DHT22;34544;48.836;9.174;2023-05-07T08:33:50;22.20;99.90
48752;DHT22;34544;48.836;9.174;2023-05-07T08:36:15;22.20;99.90
48752;DHT22;34544;48.836;9.174;2023-05-07T08:38:41;22.30;99.90
48752;DHT22;34544;48.836;9.174;2023-05-07T08:41:10;22.30;99.90
48752;DHT22;34544;48.836;9.174;2023-05-07T08:43:38;22.40;99.90
48752;DHT22;34544;48.836;9.174;2023-05-07T08:46:08;22.50;99.90
48752;DHT22;34544;48.836;9.174;2023-05-07T08:48:39;23.00;99.90
48752;DHT22;34544;48.836;9.174;2023-05-07T08:51:15;22.90;99.90
48752;DHT22;34544;48.836;9.174;2023-05-07T08:53:41;23.20;99.90
48752;DHT22;34544;48.836;9.174;2023-05-07T08:56:10;23.70;99.90
48752;DHT22;34544;48.836;9.174;2023-05-07T08:58:37;24.00;99.90
48752;DHT22;34544;48.836;9.174;2023-05-07T09:01:08;24.30;99.90
48752;DHT22;34544;48.836;9.174;2023-05-07T09:03:34;24.70;99.90
48752;DHT22;34544;48.836;9.174;2023-05-07T09:06:00;25.00;99.90
48752;DHT22;34544;48.836;9.174;2023-05-07T09:08:27;25.50;99.90
48752;DHT22;34544;48.836;9.174;2023-05-07T09:10:55;25.60;99.90
48752;DHT22;34544;48.836;9.174;2023-05-07T09:13:22;26.00;99.90
48752;DHT22;34544;48.836;9.174;2023-05-07T09:15:47;26.50;99.90
48752;DHT22;34544;48.836;9.174;2023-05-07T09:18:14;26.80;99.90
48752;DHT22;34544;48.836;9.174;2023-05-07T09:20:40;26.90;99.90
48752;DHT22;34544;48.836;9.174;2023-05-07T09:23:07;26.80;99.90
48752;DHT22;34544;48.836;9.174;2023-05-07T09:25:35;26.90;99.90
48752;DHT22;34544;48.836;9.174;2023-05-07T09:28:07;27.20;99.90
48752;DHT22;34544;48.836;9.174;2023-05-07T09:30:33;27.20;99.70
48752;DHT22;34544;48.836;9.174;2023-05-07T09:33:03;27.20;99.60
48752;DHT22;34544;48.836;9.174;2023-05-07T09:35:30;27.30;99.30
48752;DHT22;34544;48.836;9.174;2023-05-07T09:38:01;27.10;99.30
48752;DHT22;34544;48.836;9.174;2023-05-07T09:40:28;27.00;99.00
48752;DHT22;34544;48.836;9.174;2023-05-07T09:43:09;27.00;99.30
48752;DHT22;34544;48.836;9.174;2023-05-07T09:45:36;27.10;99.20
48752;DHT22;34544;48.836;9.174;2023-05-07T09:48:04;27.60;99.70
48752;DHT22;34544;48.836;9.174;2023-05-07T09:50:42;28.00;99.30
48752;DHT22;34544;48.836;9.174;2023-05-07T09:53:11;28.40;98.60
48752;DHT22;34544;48.836;9.174;2023-05-07T09:55:39;28.20;96.80
48752;DHT22;34544;48.836;9.174;2023-05-07T09:58:06;28.00;96.90
48752;DHT22;34544;48.836;9.174;2023-05-07T10:00:33;27.80;96.90
48752;DHT22;34544;48.836;9.174;2023-05-07T10:03:08;27.40;97.00
48752;DHT22;34544;48.836;9.174;2023-05-07T10:05:45;27.40;97.50
48752;DHT22;34544;48.836;9.174;2023-05-07T10:08:13;27.40;96.80
48752;DHT22;34544;48.836;9.174;2023-05-07T10:10:43;27.50;96.80
48752;DHT22;34544;48.836;9.174;2023-05-07T10:13:12;27.60;97.00
48752;DHT22;34544;48.836;9.174;2023-05-07T10:15:43;27.80;97.20
48752;DHT22;34544;48.836;9.174;2023-05-07T10:18:12;28.20;96.60
48752;DHT22;34544;48.836;9.174;2023-05-07T10:20:39;28.80;97.00
48752;DHT22;34544;48.836;9.174;2023-05-07T10:23:08;29.20;96.00
48752;DHT22;34544;48.836;9.174;2023-05-07T10:25:42;29.80;96.30
48752;DHT22;34544;48.836;9.174;2023-05-07T10:28:15;30.50;95.10
48752;DHT22;34544;48.836;9.174;2023-05-07T10:33:29;31.10;93.10
48752;DHT22;34544;48.836;9.174;2023-05-07T10:35:58;31.30;93.30
48752;DHT22;34544;48.836;9.174;2023-05-07T10:38:29;31.00;91.70
48752;DHT22;34544;48.836;9.174;2023-05-07T10:40:55;30.30;92.10
48752;DHT22;34544;48.836;9.174;2023-05-07T10:43:21;29.60;92.50
48752;DHT22;34544;48.836;9.174;2023-05-07T10:46:13;28.80;92.70
48752;DHT22;34544;48.836;9.174;2023-05-07T10:51:34;27.80;95.30
48752;DHT22;34544;48.836;9.174;2023-05-07T10:56:42;28.10;94.80
48752;DHT22;34544;48.836;9.174;2023-05-07T11:04:31;29.60;94.80
48752;DHT22;34544;48.836;9.174;2023-05-07T11:07:28;30.10;94.90
48752;DHT22;34544;48.836;9.174;2023-05-07T11:10:00;30.40;94.60
48752;DHT22;34544;48.836;9.174;2023-05-07T11:12:51;30.50;94.20
48752;DHT22;34544;48.836;9.174;2023-05-07T11:15:36;30.40;94.10
48752;DHT22;34544;48.836;9.174;2023-05-07T11:18:05;30.00;93.50
48752;DHT22;34544;48.836;9.174;2023-05-07T11:26:08;28.60;95.50
48752;DHT22;34544;48.836;9.174;2023-05-07T11:28:39;28.40;95.30
48752;DHT22;34544;48.836;9.174;2023-05-07T11:31:05;28.10;95.50
48752;DHT22;34544;48.836;9.174;2023-05-07T11:33:31;27.80;95.50
48752;DHT22;34544;48.836;9.174;2023-05-07T11:36:01;27.70;95.90
48752;DHT22;34544;48.836;9.174;2023-05-07T11:38:37;27.40;96.10
48752;DHT22;34544;48.836;9.174;2023-05-07T11:41:03;27.20;97.10
48752;DHT22;34544;48.836;9.174;2023-05-07T11:43:31;27.00;97.80
48752;DHT22;34544;48.836;9.174;2023-05-07T11:46:10;26.70;97.80
48752;DHT22;34544;48.836;9.174;2023-05-07T11:48:36;26.50;97.30
48752;DHT22;34544;48.836;9.174;2023-05-07T11:51:03;26.40;97.80
48752;DHT22;34544;48.836;9.174;2023-05-07T11:53:40;26.20;97.90
48752;DHT22;34544;48.836;9.174;2023-05-07T11:56:11;26.00;98.20
48752;DHT22;34544;48.836;9.174;2023-05-07T11:58:37;25.90;98.80
48752;DHT22;34544;48.836;9.174;2023-05-07T12:01:03;25.70;98.10
48752;DHT22;34544;48.836;9.174;2023-05-07T12:03:29;25.60;98.70
48752;DHT22;34544;48.836;9.174;2023-05-07T12:05:55;25.40;98.50
48752;DHT22;34544;48.836;9.174;2023-05-07T12:08:21;25.20;99.00
48752;DHT22;34544;48.836;9.174;2023-05-07T12:10:49;25.00;98.30
48752;DHT22;34544;48.836;9.174;2023-05-07T12:13:19;24.80;99.20
48752;DHT22;34544;48.836;9.174;2023-05-07T12:15:45;24.60;98.80
48752;DHT22;34544;48.836;9.174;2023-05-07T12:18:11;24.40;99.20
48752;DHT22;34544;48.836;9.174;2023-05-07T12:20:37;24.20;99.10
48752;DHT22;34544;48.836;9.174;2023-05-07T12:23:03;24.10;98.90
48752;DHT22;34544;48.836;9.174;2023-05-07T12:25:35;24.00;99.50
48752;DHT22;34544;48.836;9.174;2023-05-07T12:28:02;23.90;99.90
48752;DHT22;34544;48.836;9.174;2023-05-07T12:30:29;23.80;99.90
48752;DHT22;34544;48.836;9.174;2023-05-07T12:32:54;23.70;99.90
48752;DHT22;34544;48.836;9.174;2023-05-07T12:35:30;23.60;99.90
48752;DHT22;34544;48.836;9.174;2023-05-07T12:37:57;23.50;99.90
48752;DHT22;34544;48.836;9.174;2023-05-07T12:40:35;23.40;99.90
48752;DHT22;34544;48.836;9.174;2023-05-07T12:43:00;23.20;99.90
48752;DHT22;34544;48.836;9.174;2023-05-07T12:45:26;22.90;99.90
48752;DHT22;34544;48.836;9.174;2023-05-07T12:47:52;22.40;99.90
48752;DHT22;34544;48.836;9.174;2023-05-07T12:50:18;22.00;99.90
48752;DHT22;34544;48.836;9.174;2023-05-07T12:52:49;21.80;99.90
48752;DHT22;34544;48.836;9.174;2023-05-07T12:55:16;21.50;99.90
48752;DHT22;34544;48.836;9.174;2023-05-07T12:57:45;19.30;99.90
48752;DHT22;34544;48.836;9.174;2023-05-07T13:00:13;20.90;99.90
48752;DHT22;34544;48.836;9.174;2023-05-07T13:02:40;20.40;99.90
48752;DHT22;34544;48.836;9.174;2023-05-07T13:05:07;20.00;99.90
48752;DHT22;34544;48.836;9.174;2023-05-07T13:07:34;19.80;99.90
48752;DHT22;34544;48.836;9.174;2023-05-07T13:09:59;19.40;99.90
48752;DHT22;34544;48.836;9.174;2023-05-07T13:12:25;19.00;99.90
48752;DHT22;34544;48.836;9.174;2023-05-07T13:14:51;18.90;99.90
48752;DHT22;34544;48.836;9.174;2023-05-07T13:17:16;18.70;99.90
48752;DHT22;34544;48.836;9.174;2023-05-07T13:19:43;18.50;99.90
48752;DHT22;34544;48.836;9.174;2023-05-07T13:22:09;18.40;99.90
48752;DHT22;34544;48.836;9.174;2023-05-07T13:24:36;18.40;99.90
48752;DHT22;34544;48.836;9.174;2023-05-07T13:27:01;18.30;99.90
48752;DHT22;34544;48.836;9.174;2023-05-07T13:31:56;17.90;99.90
48752;DHT22;34544;48.836;9.174;2023-05-07T13:34:22;17.70;99.90
48752;DHT22;34544;48.836;9.174;2023-05-07T13:36:48;17.40;99.90
48752;DHT22;34544;48.836;9.174;2023-05-07T13:39:14;17.10;99.90
48752;DHT22;34544;48.836;9.174;2023-05-07T13:41:39;16.90;99.90
48752;DHT22;34544;48.836;9.174;2023-05-07T13:44:05;16.60;99.90
48752;DHT22;34544;48.836;9.174;2023-05-07T13:46:30;16.50;99.90
48752;DHT22;34544;48.836;9.174;2023-05-07T13:51:23;16.40;99.90
48752;DHT22;34544;48.836;9.174;2023-05-07T13:53:49;16.30;99.90
48752;DHT22;34544;48.836;9.174;2023-05-07T13:56:15;16.20;99.90
48752;DHT22;34544;48.836;9.174;2023-05-07T13:58:40;16.30;99.90
48752;DHT22;34544;48.836;9.174;2023-05-07T14:01:06;16.50;99.90
48752;DHT22;34544;48.836;9.174;2023-05-07T14:03:32;16.50;99.90
48752;DHT22;34544;48.836;9.174;2023-05-07T14:05:59;16.60;99.90
48752;DHT22;34544;48.836;9.174;2023-05-07T14:08:27;16.50;99.90
48752;DHT22;34544;48.836;9.174;2023-05-07T14:10:53;16.60;99.90
48752;DHT22;34544;48.836;9.174;2023-05-07T14:13:18;16.60;99.90
48752;DHT22;34544;48.836;9.174;2023-05-07T14:15:44;16.70;99.90
48752;DHT22;34544;48.836;9.174;2023-05-07T14:18:12;16.70;99.90
48752;DHT22;34544;48.836;9.174;2023-05-07T14:20:38;16.80;99.90
48752;DHT22;34544;48.836;9.174;2023-05-07T14:23:04;16.80;99.90
48752;DHT22;34544;48.836;9.174;2023-05-07T14:25:30;16.80;99.90
48752;DHT22;34544;48.836;9.174;2023-05-07T14:27:55;16.90;99.90
48752;DHT22;34544;48.836;9.174;2023-05-07T14:30:21;16.90;99.90
48752;DHT22;34544;48.836;9.174;2023-05-07T14:32:50;17.00;99.90
48752;DHT22;34544;48.836;9.174;2023-05-07T14:35:16;17.00;99.90
48752;DHT22;34544;48.836;9.174;2023-05-07T14:37:42;17.00;99.90
48752;DHT22;34544;48.836;9.174;2023-05-07T14:40:08;16.90;99.90
48752;DHT22;34544;48.836;9.174;2023-05-07T14:42:34;17.00;99.90
48752;DHT22;34544;48.836;9.174;2023-05-07T14:45:00;17.00;99.90
48752;DHT22;34544;48.836;9.174;2023-05-07T14:47:26;16.90;99.90
48752;DHT22;34544;48.836;9.174;2023-05-07T14:49:51;17.00;99.90
48752;DHT22;34544;48.836;9.174;2023-05-07T14:52:18;17.00;99.90
48752;DHT22;34544;48.836;9.174;2023-05-07T14:54:44;17.00;99.90
48752;DHT22;34544;48.836;9.174;2023-05-07T14:57:10;17.00;99.90
48752;DHT22;34544;48.836;9.174;2023-05-07T14:59:39;17.10;99.90
48752;DHT22;34544;48.836;9.174;2023-05-07T15:02:05;17.10;99.90
48752;DHT22;34544;48.836;9.174;2023-05-07T15:04:36;17.10;99.90
48752;DHT22;34544;48.836;9.174;2023-05-07T15:07:01;17.20;99.90
48752;DHT22;34544;48.836;9.174;2023-05-07T15:09:27;17.30;99.90
48752;DHT22;34544;48.836;9.174;2023-05-07T15:11:53;17.40;99.90
48752;DHT22;34544;48.836;9.174;2023-05-07T15:14:18;17.40;99.90
48752;DHT22;34544;48.836;9.174;2023-05-07T15:16:44;17.50;99.90
48752;DHT22;34544;48.836;9.174;2023-05-07T15:19:10;17.50;99.90
48752;DHT22;34544;48.836;9.174;2023-05-07T15:26:28;17.70;99.90
48752;DHT22;34544;48.836;9.174;2023-05-07T15:33:48;17.80;99.90
48752;DHT22;34544;48.836;9.174;2023-05-07T15:36:17;17.90;99.90
48752;DHT22;34544;48.836;9.174;2023-05-07T15:38:43;17.90;99.90
48752;DHT22;34544;48.836;9.174;2023-05-07T15:41:09;18.00;99.90
48752;DHT22;34544;48.836;9.174;2023-05-07T15:43:44;18.10;99.90
48752;DHT22;34544;48.836;9.174;2023-05-07T15:48:37;18.60;99.90
48752;DHT22;34544;48.836;9.174;2023-05-07T15:51:02;18.20;99.90
48752;DHT22;34544;48.836;9.174;2023-05-07T15:53:30;18.20;99.90
48752;DHT22;34544;48.836;9.174;2023-05-07T15:55:55;18.20;99.90
48752;DHT22;34544;48.836;9.174;2023-05-07T15:58:21;18.20;99.90
48752;DHT22;34544;48.836;9.174;2023-05-07T16:00:47;18.20;99.90
48752;DHT22;34544;48.836;9.174;2023-05-07T16:03:12;18.20;99.90
48752;DHT22;34544;48.836;9.174;2023-05-07T16:05:38;18.20;99.90
48752;DHT22;34544;48.836;9.174;2023-05-07T16:08:04;18.20;99.90
48752;DHT22;34544;48.836;9.174;2023-05-07T16:10:30;18.10;99.90
48752;DHT22;34544;48.836;9.174;2023-05-07T16:12:56;18.10;99.90
48752;DHT22;34544;48.836;9.174;2023-05-07T16:15:22;18.10;99.90
48752;DHT22;34544;48.836;9.174;2023-05-07T16:17:48;18.00;99.90
48752;DHT22;34544;48.836;9.174;2023-05-07T16:20:15;18.00;99.90
48752;DHT22;34544;48.836;9.174;2023-05-07T16:22:44;18.00;99.90
48752;DHT22;34544;48.836;9.174;2023-05-07T16:25:10;18.00;99.90
48752;DHT22;34544;48.836;9.174;2023-05-07T16:27:35;17.90;99.90
48752;DHT22;34544;48.836;9.174;2023-05-07T16:30:01;17.90;99.90
48752;DHT22;34544;48.836;9.174;2023-05-07T16:32:27;17.90;99.90
48752;DHT22;34544;48.836;9.174;2023-05-07T16:34:54;17.90;99.90
48752;DHT22;34544;48.836;9.174;2023-05-07T16:37:19;17.90;99.90
48752;DHT22;34544;48.836;9.174;2023-05-07T16:39:45;17.80;99.90
48752;DHT22;34544;48.836;9.174;2023-05-07T16:42:11;17.80;99.90
48752;DHT22;34544;48.836;9.174;2023-05-07T16:44:37;17.80;99.90
48752;DHT22;34544;48.836;9.174;2023-05-07T16:47:02;17.80;99.90
48752;DHT22;34544;48.836;9.174;2023-05-07T16:49:28;17.80;99.90
48752;DHT22;34544;48.836;9.174;2023-05-07T16:51:53;17.70;99.90
48752;DHT22;34544;48.836;9.174;2023-05-07T16:54:19;17.60;99.90
48752;DHT22;34544;48.836;9.174;2023-05-07T16:56:45;17.60;99.90
48752;DHT22;34544;48.836;9.174;2023-05-07T16:59:10;17.50;99.90
48752;DHT22;34544;48.836;9.174;2023-05-07T17:01:36;17.50;99.90
48752;DHT22;34544;48.836;9.174;2023-05-07T17:04:02;17.50;99.90
48752;DHT22;34544;48.836;9.174;2023-05-07T17:06:27;17.60;99.90
48752;DHT22;34544;48.836;9.174;2023-05-07T17:08:53;17.70;99.90
48752;DHT22;34544;48.836;9.174;2023-05-07T17:11:19;17.70;99.90
48752;DHT22;34544;48.836;9.174;2023-05-07T17:13:45;17.70;99.90